Overview Statistics Trail Chart Weather Telemetry Raw packets
 

This is the latest recevied weather packets stored in our database for station/object R8AHC-W3. If no packets are shown the sender has not sent any weather packets the latest 10 day(s).

<< 4 5 6 7 8 9 >>
Time Temp. Humidity Pressure Rain* Wind** Luminosity Snow
1777546622 11.67° C 44% 1018 hPa - 1.79 m/s, 175° - -
1777543022 11.67° C 44% 1019 hPa - 1.79 m/s, 175° - -
1777539422 11.67° C 44% 1019 hPa - 1.79 m/s, 175° - -
1777535822 11.67° C 44% 1020 hPa - 1.79 m/s, 175° - -
1777532222 11.67° C 44% 1020 hPa - 1.79 m/s, 175° - -
1777528622 6.67° C 65% 1021 hPa - 0.45 m/s, 244° - -
1777525022 6.67° C 65% 1022 hPa - 0.45 m/s, 244° - -
1777521422 6.67° C 65% 1022 hPa - 0.45 m/s, 244° - -
1777517823 6.67° C 65% 1022 hPa - 0.45 m/s, 244° - -
1777510621 2.78° C 81% 1022 hPa - 0.89 m/s, 259° - -
1777507023 2.78° C 81% 1022 hPa - 0.89 m/s, 259° - -
1777499822 3.89° C 77% 1022 hPa - 0.89 m/s, 268° - -
1777496222 3.89° C 77% 1022 hPa - 0.89 m/s, 268° - -
1777492621 3.89° C 77% 1022 hPa - 0.89 m/s, 268° - -
1777485422 5.56° C 60% 1021 hPa - 1.79 m/s, 269° - -
1777478223 7.22° C 52% 1020 hPa - 1.79 m/s, 252° - -
1777474629 12.78° C 31% 1019 hPa - 4.02 m/s, 213° - -
1777471022 12.78° C 31% 1018 hPa - 4.02 m/s, 213° - -
1777467422 12.78° C 31% 1018 hPa - 4.02 m/s, 213° - -
1777463822 12.78° C 31% 1017 hPa - 4.02 m/s, 213° - -
1777460222 12.78° C 31% 1017 hPa - 4.02 m/s, 213° - -
1777456622 12.78° C 31% 1017 hPa - 4.02 m/s, 213° - -
1777453022 12.78° C 31% 1018 hPa - 4.02 m/s, 213° - -
1777445822 7.78° C 43% 1019 hPa - 2.68 m/s, 213° - -
1777442222 7.78° C 43% 1019 hPa - 2.68 m/s, 213° - -

* Rain since midnight (hover to see other rain measurements)
** Current wind speed in m/s (hover to see current wind gust speed)